Latest Weather Observations for Winton

IDQ60801

Issued at 7:32 am EST Thursday 28 May 2015 (issued every 30 minutes, with the page automatically refreshed every 10 minutes)

About weather observations | Map of weather stations | Latest weather observations for QLD | Other Formats
Station Details ID: 037039 Name: WINTON AIRPORT Lat: -22.36 Lon: 143.08 Height: 192.2 m
Data from the previous 72 hours. | See also: Recent months at Winton
Date/Time
EST
Temp
°C
App
Temp
°C
Dew
Point
Rel
Hum
%
Delta-T
°C
Wind Press
QNH
hPa
Press
MSL
hPa
Rain
since 9 am
mm
Dir
 
Spd
km/h
Gust
km/h
Spd
kts
Gust
kts
28/07:30am 14.5 11.8 5.8 56 4.2 E 9 11 5 6 1020.1 1019.5 0.0
28/07:00am 13.5 11.1 5.2 57 3.9 ESE 7 9 4 5 1019.7 1019.1 0.0
28/06:30am 13.9 11.7 5.5 57 4.0 E 6 7 3 4 1019.4 1018.8 0.0
28/06:00am 14.1 11.8 5.7 57 4.0 ENE 7 7 4 4 1018.9 1018.3 0.0
28/05:30am 14.4 12.1 5.7 56 4.2 E 7 9 4 5 1018.8 1018.2 0.0
28/05:00am 14.6 11.9 5.7 55 4.3 E 9 9 5 5 1018.3 1017.7 0.0
28/04:30am 15.0 12.7 5.8 54 4.4 ESE 7 9 4 5 1018.3 1017.7 0.0
28/04:00am 15.6 12.7 6.3 54 4.5 E 11 13 6 7 1018.2 1017.6 0.0
28/03:30am 15.7 12.7 6.2 53 4.6 E 11 11 6 6 1018.4 1017.8 0.0
28/03:00am 16.2 13.6 6.3 52 4.9 ESE 9 11 5 6 1018.6 1018.0 0.0
28/02:30am 16.3 14.1 6.2 51 5.0 E 7 9 4 5 1018.6 1018.0 0.0
28/02:00am 16.7 14.2 6.5 51 5.0 ESE 9 11 5 6 1018.6 1018.0 0.0
28/01:30am 16.6 14.4 6.1 50 5.1 ESE 7 11 4 6 1018.8 1018.2 0.0
28/01:00am 17.1 14.5 6.3 49 5.3 SE 9 13 5 7 1018.6 1018.0 0.0
28/12:30am 17.2 15.0 6.1 48 5.5 ESE 7 9 4 5 1018.6 1018.0 0.0
28/12:00am 17.7 15.2 6.6 48 5.5 E 9 9 5 5 1018.8 1018.2 0.0
 
Date/Time
EST
Temp
°C
App
Temp
°C
Dew
Point
Rel
Hum
%
Delta-T
°C
Wind Press
QNH
hPa
Press
MSL
hPa
Rain
since 9 am
mm
Dir
 
Spd
km/h
Gust
km/h
Spd
kts
Gust
kts
27/11:30pm 18.9 16.1 7.0 46 6.0 ESE 11 13 6 7 1019.2 1018.6 0.0
27/11:00pm 19.4 16.7 7.2 45 6.2 ESE 11 13 6 7 1019.5 1018.9 0.0
27/10:30pm 19.8 17.1 7.5 45 6.3 ESE 11 13 6 7 1019.4 1018.8 0.0
27/10:00pm 20.1 17.4 7.5 44 6.5 SE 11 13 6 7 1019.4 1018.8 0.0
27/09:30pm 20.5 17.9 7.8 44 6.6 SE 11 13 6 7 1019.4 1018.8 0.0
27/09:00pm 20.7 18.0 7.3 42 6.9 SE 11 11 6 6 1019.1 1018.5 0.0
27/08:30pm 21.9 19.3 7.7 40 7.4 ESE 11 11 6 6 1018.8 1018.2 0.0
27/08:00pm 23.3 20.9 8.6 39 7.9 ESE 11 15 6 8 1018.4 1017.8 0.0
27/07:30pm 24.2 21.4 8.6 37 8.4 E 13 17 7 9 1017.9 1017.3 0.0
27/07:00pm 24.8 22.0 8.7 36 8.7 E 13 15 7 8 1017.7 1017.1 0.0
27/06:30pm 25.7 22.9 8.7 34 9.3 ESE 13 15 7 8 1017.4 1016.7 0.0
27/06:00pm 27.2 24.3 9.5 33 9.9 ESE 15 22 8 12 1017.3 1016.6 0.0
27/05:30pm 28.1 25.3 9.9 32 10.3 ESE 15 20 8 11 1017.4 1016.7 0.0
27/05:00pm 28.8 25.5 9.5 30 10.8 ESE 17 24 9 13 1017.1 1016.4 0.0
27/04:30pm 29.1 26.2 9.8 30 10.9 ESE 15 28 8 15 1017.1 1016.4 0.0
27/04:00pm 29.6 26.6 10.7 31 10.9 SE 17 28 9 15 1017.1 1016.4 0.0
27/03:30pm 29.5 26.5 10.6 31 10.9 SE 17 32 9 17 1017.1 1016.4 0.0
27/03:00pm 29.0 25.9 10.2 31 10.7 ESE 17 24 9 13 1017.1 1016.4 0.0
27/02:30pm 28.9 25.9 10.6 32 10.5 ESE 17 28 9 15 1017.4 1016.7 0.0
27/02:00pm 29.1 26.3 11.2 33 10.3 ESE 17 28 9 15 1017.5 1016.8 0.0
27/01:30pm 28.6 26.1 11.2 34 10.0 E 15 22 8 12 1018.1 1017.5 0.0
27/01:00pm 28.1 25.4 11.6 36 9.5 ENE 17 26 9 14 1018.7 1018.1 0.0
27/12:30pm 27.6 24.9 11.6 37 9.3 ENE 17 26 9 14 1019.3 1018.7 0.0
27/12:00pm 27.1 24.6 12.3 39 8.6 NE 17 30 9 16 1020.0 1019.4 0.0
27/11:30am 26.5 23.7 12.5 41 8.2 ENE 19 24 10 13 1020.8 1020.2 0.0
27/11:00am 26.5 24.3 13.3 44 7.8 NE 17 28 9 15 1021.5 1020.8 0.0
27/10:30am 25.3 22.6 13.5 48 7.0 NE 20 28 11 15 1022.2 1021.6 0.0
27/10:00am 23.8 21.0 13.1 51 6.2 NE 20 30 11 16 1022.4 1021.8 0.0
27/09:30am 22.6 19.6 12.5 53 5.8 ENE 20 28 11 15 1022.4 1021.8 0.0
27/09:00am 21.3 18.1 11.9 55 5.3 ENE 20 28 11 15 1022.1 1021.4 0.0
27/08:30am 19.9 17.0 11.1 57 4.9 ENE 17 24 9 13 1022.0 1021.3 0.0
27/08:00am 18.7 16.0 10.5 59 4.4 ENE 15 19 8 10 1021.7 1021.0 0.0
27/07:30am 17.6 15.3 10.5 63 3.8 ENE 13 17 7 9 1021.3 1020.7 0.0
27/07:00am 15.7 13.6 9.6 67 3.2 ENE 11 13 6 7 1020.8 1020.2 0.0
27/06:30am 14.9 13.3 8.2 64 3.4 E 6 7 3 4 1020.6 1020.0 0.0
27/06:00am 15.3 13.6 8.3 63 3.6 E 7 9 4 5 1020.4 1019.8 0.0
27/05:30am 15.1 13.2 7.6 61 3.8 ESE 7 7 4 4 1020.1 1019.5 0.0
27/05:00am 15.2 13.2 7.0 58 4.1 ESE 7 9 4 5 1020.0 1019.4 0.0
27/04:30am 15.6 13.7 7.6 59 4.0 E 7 11 4 6 1019.7 1019.1 0.0
27/04:00am 15.7 13.3 7.0 56 4.3 E 9 11 5 6 1019.5 1018.9 0.0
27/03:30am 16.2 13.4 6.9 54 4.6 E 11 15 6 8 1019.6 1019.0 0.0
27/03:00am 16.7 13.9 7.1 53 4.8 E 11 15 6 8 1019.8 1019.2 0.0
27/02:30am 16.8 14.1 7.2 53 4.8 ESE 11 15 6 8 1019.9 1019.3 0.0
27/02:00am 16.8 14.4 7.2 53 4.8 SE 9 11 5 6 1020.2 1019.6 0.0
27/01:30am 17.0 14.3 7.4 53 4.9 ESE 11 13 6 7 1020.2 1019.6 0.0
27/01:00am 16.6 14.2 7.0 53 4.8 ESE 9 11 5 6 1020.3 1019.7 0.0
27/12:30am 16.8 14.8 6.9 52 5.0 ESE 7 9 4 5 1020.6 1020.0 0.0
27/12:00am 17.4 15.5 7.5 52 5.0 ESE 7 9 4 5 1020.8 1020.2 0.0
 
Date/Time
EST
Temp
°C
App
Temp
°C
Dew
Point
Rel
Hum
%
Delta-T
°C
Wind Press
QNH
hPa
Press
MSL
hPa
Rain
since 9 am
mm
Dir
 
Spd
km/h
Gust
km/h
Spd
kts
Gust
kts
26/11:30pm 17.7 15.4 7.4 51 5.2 ESE 9 11 5 6 1020.8 1020.2 0.0
26/11:00pm 17.9 15.9 7.3 50 5.4 ESE 7 9 4 5 1021.0 1020.4 0.0
26/10:30pm 18.8 17.0 7.3 47 5.9 SE 6 7 3 4 1021.1 1020.5 0.0
26/10:00pm 19.7 17.6 8.4 48 5.9 ESE 9 13 5 7 1021.0 1020.4 0.0
26/09:30pm 20.4 17.9 8.4 46 6.3 ESE 11 11 6 6 1021.0 1020.4 0.0
26/09:00pm 20.9 18.5 8.5 45 6.5 ESE 11 13 6 7 1021.0 1020.4 0.0
26/08:30pm 21.4 19.3 8.3 43 6.9 ESE 9 11 5 6 1021.0 1020.4 0.0
26/08:00pm 22.9 20.7 9.3 42 7.4 ESE 11 13 6 7 1020.7 1020.1 0.0
26/07:30pm 24.0 21.9 9.6 40 7.9 ESE 11 13 6 7 1020.4 1019.8 0.0
26/07:00pm 24.9 22.1 10.0 39 8.3 ESE 15 17 8 9 1020.0 1019.4 0.0
26/06:30pm 25.6 22.4 9.8 37 8.8 E 17 22 9 12 1019.9 1019.3 0.0
26/06:00pm 26.3 22.3 10.5 37 8.9 E 22 30 12 16 1019.6 1019.0 0.0
26/05:30pm 27.1 24.0 10.3 35 9.5 ESE 17 26 9 14 1019.3 1018.7 0.0
26/05:00pm 27.2 23.8 10.4 35 9.5 ESE 19 26 10 14 1019.0 1018.4 0.0
26/04:30pm 27.7 24.1 10.0 33 10.0 ESE 19 28 10 15 1019.0 1018.4 0.0
26/04:00pm 28.4 25.0 10.6 33 10.1 ESE 19 28 10 15 1019.0 1018.4 0.0
26/03:30pm 28.7 25.7 10.8 33 10.3 E 17 24 9 13 1019.1 1018.5 0.0
26/03:00pm 28.3 25.8 10.9 34 10.0 E 15 24 8 13 1019.1 1018.5 0.0
26/02:30pm 28.2 25.8 11.3 35 9.8 E 15 26 8 14 1019.4 1018.8 0.0
26/02:00pm 27.4 24.6 11.4 37 9.2 E 17 26 9 14 1019.8 1019.2 0.0
26/01:30pm 27.7 25.5 12.1 38 9.1 ENE 15 32 8 17 1020.2 1019.6 0.0
26/01:00pm 27.1 23.9 12.0 39 8.7 ENE 20 28 11 15 1020.9 1020.3 0.0
26/12:30pm 27.0 24.3 13.0 42 8.3 ENE 19 30 10 16 1021.9 1021.2 0.0
26/12:00pm 26.7 24.0 13.4 43 7.9 ENE 20 30 11 16 1022.5 1021.9 0.0
26/11:30am 25.5 22.8 13.4 47 7.1 NE 20 28 11 15 1022.9 1022.3 0.0
26/11:00am 24.6 21.5 13.5 50 6.5 ENE 22 30 12 16 1023.7 1023.1 0.0
26/10:30am 24.1 21.1 13.6 52 6.2 ENE 22 32 12 17 1024.0 1023.4 0.0
26/10:00am 22.8 19.0 13.6 56 5.4 ENE 26 33 14 18 1024.5 1023.9 0.0
26/09:30am 22.1 18.3 13.7 59 4.9 ENE 26 33 14 18 1024.6 1024.0 0.0
26/09:00am 21.1 17.6 13.5 62 4.4 ENE 24 33 13 18 1024.4 1023.8 0.0
26/08:30am 19.5 15.8 12.8 65 3.8 E 24 30 13 16 1024.3 1023.7 0.0
26/08:00am 18.1 15.2 12.3 69 3.2 E 19 24 10 13 1024.3 1023.7 0.0
26/07:30am 17.0 14.4 12.1 73 2.7 E 17 20 9 11 1024.0 1023.4 0.0
26/07:00am 16.6 14.3 11.7 73 2.7 E 15 19 8 10 1023.7 1023.1 0.0
26/06:30am 17.0 14.8 12.1 73 2.7 E 15 17 8 9 1023.3 1022.7 0.0
26/06:00am 17.2 15.0 12.1 72 2.8 E 15 19 8 10 1023.0 1022.4 0.0
26/05:30am 17.0 15.8 11.7 71 2.9 E 9 13 5 7 1022.7 1022.1 0.0
26/05:00am 17.3 15.7 11.6 69 3.1 E 11 17 6 9 1022.4 1021.8 0.0
26/04:30am 17.8 15.1 11.6 67 3.4 E 17 24 9 13 1022.2 1021.6 0.0
26/04:00am 18.1 14.8 11.7 66 3.5 E 20 26 11 14 1022.0 1021.3 0.0
26/03:30am 18.4 15.1 11.5 64 3.8 E 20 28 11 15 1022.2 1021.6 0.0
26/03:00am 18.5 15.1 11.1 62 4.0 E 20 28 11 15 1022.7 1022.1 0.0
26/02:30am 18.6 15.1 10.9 61 4.2 E 20 30 11 16 1022.8 1022.2 0.0
26/02:00am 18.8 15.3 10.9 60 4.3 E 20 24 11 13 1023.0 1022.4 0.0
26/01:30am 18.1 15.2 9.7 58 4.5 ESE 15 19 8 10 1023.4 1022.8 0.0
26/01:00am 17.9 14.8 8.7 55 4.8 ESE 15 19 8 10 1023.4 1022.8 0.0
26/12:30am 18.1 14.9 8.4 53 5.0 ESE 15 17 8 9 1023.1 1022.5 0.0
26/12:00am 18.5 15.3 8.5 52 5.2 ESE 15 19 8 10 1023.0 1022.4 0.0
 
Date/Time
EST
Temp
°C
App
Temp
°C
Dew
Point
Rel
Hum
%
Delta-T
°C
Wind Press
QNH
hPa
Press
MSL
hPa
Rain
since 9 am
mm
Dir
 
Spd
km/h
Gust
km/h
Spd
kts
Gust
kts
25/11:30pm 19.1 15.9 8.4 50 5.6 ESE 15 19 8 10 1023.1 1022.5 0.0
25/11:00pm 19.1 16.2 8.1 49 5.7 ESE 13 15 7 8 1023.2 1022.6 0.0
25/10:30pm 19.4 16.9 8.1 48 5.9 SE 11 13 6 7 1023.2 1022.6 0.0
25/10:00pm 20.4 17.2 8.4 46 6.3 ESE 15 17 8 9 1023.0 1022.4 0.0
25/09:30pm 20.9 17.7 8.5 45 6.6 ESE 15 19 8 10 1022.8 1022.2 0.0
25/09:00pm 21.5 18.0 8.7 44 6.8 ESE 17 19 9 10 1022.8 1022.2 0.0
25/08:30pm 21.8 18.7 9.0 44 6.9 ESE 15 17 8 9 1022.7 1022.1 0.0
25/08:00pm 22.6 19.5 9.0 42 7.3 ESE 15 17 8 9 1022.5 1021.9 0.0
25/07:30pm 23.6 20.7 9.6 41 7.7 ESE 15 20 8 11 1022.2 1021.6 0.0
25/07:00pm 24.4 21.2 9.9 40 8.0 ESE 17 22 9 12 1021.6 1020.9 0.0
25/06:30pm 25.2 21.8 10.6 40 8.2 E 19 22 10 12 1021.1 1020.5 0.0
25/06:00pm 26.0 22.7 11.0 39 8.5 E 19 24 10 13 1021.0 1020.4 0.0
25/05:30pm 26.9 23.5 11.4 38 8.9 E 20 30 11 16 1020.7 1020.1 0.0
25/05:00pm 27.7 24.6 11.7 37 9.3 E 19 24 10 13 1020.5 1019.9 0.0
25/04:30pm 27.9 24.7 11.9 37 9.3 ENE 20 30 11 16 1020.2 1019.6 0.0
25/04:00pm 28.3 24.7 11.8 36 9.6 ENE 22 30 12 16 1020.0 1019.4 0.0
25/03:30pm 28.2 24.2 11.7 36 9.6 ENE 24 33 13 18 1020.2 1019.6 0.0
25/03:00pm 28.2 23.5 12.1 37 9.4 E 28 37 15 20 1020.1 1019.5 0.0
25/02:30pm 27.8 23.5 12.2 38 9.1 ENE 26 39 14 21 1020.3 1019.7 0.0
25/02:00pm 28.0 23.2 12.8 39 9.0 ENE 30 39 16 21 1020.4 1019.8 0.0
25/01:30pm 27.6 22.8 12.8 40 8.7 ENE 30 41 16 22 1021.1 1020.5 0.0
25/01:00pm 26.6 21.8 13.0 43 8.0 ENE 30 41 16 22 1021.8 1021.1 0.0
25/12:30pm 26.5 21.6 13.6 45 7.7 ENE 32 43 17 23 1022.6 1022.0 0.0
25/12:00pm 25.8 20.7 13.0 45 7.5 ENE 32 46 17 25 1023.1 1022.5 0.0
25/11:30am 25.6 20.4 13.5 47 7.2 ENE 33 46 18 25 1023.5 1022.9 0.0
25/11:00am 23.9 18.5 12.8 49 6.4 ENE 33 44 18 24 1024.0 1023.4 0.0
25/10:30am 23.7 18.4 13.0 51 6.2 ENE 33 46 18 25 1024.2 1023.6 0.0
25/10:00am 23.1 17.5 13.3 54 5.7 ENE 35 46 19 25 1024.5 1023.9 0.0
25/09:30am 22.8 17.6 13.3 55 5.5 ENE 33 43 18 23 1024.8 1024.2 0.0
25/09:00am 21.5 16.1 12.9 58 4.9 E 33 43 18 23 1024.6 1024.0 0.0
25/08:30am 20.4 16.8 13.1 63 4.2 E 24 32 13 17 1024.6 1024.0 0.0
25/08:00am 18.1 15.9 12.1 68 3.3 ESE 15 20 8 11 1024.3 1023.7 0.0

Other Formats:

Comma delimited format used in spreadsheet applications
http://www.bom.gov.au/fwo/IDQ60801/IDQ60801.94342.axf

JavaScript Object Notation format (JSON) in row-major order
http://www.bom.gov.au/fwo/IDQ60801/IDQ60801.94342.json